ENY3930 KORD-KATW
Flight info
| Callsign | ENY3930 |
|---|---|
| Flight time | 0h 31m |
| Altitude | 22000 |
| Route | PMPKN NEATO DLLAN RONIC BAE |
| Aircraft | E170/M-SDE3GILORVW/S |
Departure
| Time | 2026-05-05 21:48 |
|---|---|
| Airport | Chicago O'Hare International Airport (KORD) |
Arrival
| Time | 2026-05-05 22:19 |
|---|---|
| Airport | Appleton International Airport (KATW) |
| Time | Latitude | Longitude | Altitude | Speed | Heading |
|---|---|---|---|---|---|
| 2026-05-05 21:24 | 41.97616 | -87.89615 | 667 ft | 0 kts | 7° |
| 2026-05-05 21:37 | 41.97601 | -87.89619 | 667 ft | 4 kts | 17° |
| 2026-05-05 21:37 | 41.97580 | -87.89638 | 667 ft | 4 kts | 55° |
| 2026-05-05 21:38 | 41.97576 | -87.89670 | 667 ft | 3 kts | 108° |
| 2026-05-05 21:38 | 41.97583 | -87.89697 | 667 ft | 1 kts | 110° |
| 2026-05-05 21:38 | 41.97583 | -87.89698 | 667 ft | 0 kts | 110° |
| 2026-05-05 21:41 | 41.97583 | -87.89696 | 667 ft | 1 kts | 110° |
| 2026-05-05 21:42 | 41.97575 | -87.89669 | 667 ft | 5 kts | 110° |
| 2026-05-05 21:42 | 41.97566 | -87.89637 | 667 ft | 0 kts | 109° |
| 2026-05-05 21:42 | 41.97564 | -87.89626 | 667 ft | 2 kts | 109° |
| 2026-05-05 21:42 | 41.97556 | -87.89597 | 667 ft | 0 kts | 109° |
| 2026-05-05 21:43 | 41.97553 | -87.89588 | 667 ft | 3 kts | 110° |
| 2026-05-05 21:43 | 41.97539 | -87.89549 | 667 ft | 6 kts | 130° |
| 2026-05-05 21:43 | 41.97499 | -87.89511 | 667 ft | 9 kts | 148° |
| 2026-05-05 21:43 | 41.97470 | -87.89466 | 667 ft | 7 kts | 121° |
| 2026-05-05 21:44 | 41.97418 | -87.89431 | 667 ft | 11 kts | 177° |
| 2026-05-05 21:44 | 41.97331 | -87.89442 | 667 ft | 15 kts | 202° |
| 2026-05-05 21:44 | 41.97262 | -87.89540 | 667 ft | 15 kts | 245° |
| 2026-05-05 21:44 | 41.97213 | -87.89675 | 667 ft | 17 kts | 244° |
| 2026-05-05 21:45 | 41.97158 | -87.89823 | 667 ft | 18 kts | 244° |
| 2026-05-05 21:45 | 41.97136 | -87.89992 | 667 ft | 17 kts | 269° |
| 2026-05-05 21:45 | 41.97126 | -87.90121 | 667 ft | 7 kts | 224° |
| 2026-05-05 21:45 | 41.97072 | -87.90133 | 667 ft | 10 kts | 170° |
| 2026-05-05 21:46 | 41.97041 | -87.90056 | 667 ft | 11 kts | 89° |
| 2026-05-05 21:46 | 41.97042 | -87.89936 | 667 ft | 15 kts | 90° |
| 2026-05-05 21:46 | 41.97042 | -87.89785 | 667 ft | 18 kts | 90° |
| 2026-05-05 21:46 | 41.97037 | -87.89635 | 667 ft | 16 kts | 109° |
| 2026-05-05 21:47 | 41.96968 | -87.89557 | 669 ft | 14 kts | 173° |
| 2026-05-05 21:47 | 41.96909 | -87.89597 | 669 ft | 9 kts | 252° |
| 2026-05-05 21:47 | 41.96904 | -87.89758 | 669 ft | 38 kts | 270° |
| 2026-05-05 21:47 | 41.96905 | -87.90166 | 667 ft | 95 kts | 270° |
| 2026-05-05 21:48 | 41.96897 | -87.91355 | 947 ft | 142 kts | 270° |
| 2026-05-05 21:48 | 41.97086 | -87.92653 | 2005 ft | 148 kts | 302° |
| 2026-05-05 21:48 | 41.97914 | -87.93494 | 2853 ft | 160 kts | 340° |
| 2026-05-05 21:48 | 41.99074 | -87.93542 | 3524 ft | 174 kts | 358° |
| 2026-05-05 21:49 | 42.00313 | -87.93536 | 4197 ft | 182 kts | 356° |
| 2026-05-05 21:49 | 42.01589 | -87.93718 | 4807 ft | 189 kts | 349° |
| 2026-05-05 21:49 | 42.02964 | -87.93758 | 5383 ft | 208 kts | 359° |
| 2026-05-05 21:49 | 42.04508 | -87.93659 | 5851 ft | 234 kts | 359° |
| 2026-05-05 21:50 | 42.06210 | -87.93586 | 6434 ft | 255 kts | 358° |
| 2026-05-05 21:50 | 42.08050 | -87.93548 | 7023 ft | 271 kts | 357° |
| 2026-05-05 21:50 | 42.09979 | -87.93522 | 7794 ft | 281 kts | 356° |
| 2026-05-05 21:50 | 42.11954 | -87.93506 | 8653 ft | 287 kts | 354° |
| 2026-05-05 21:51 | 42.13946 | -87.93493 | 9570 ft | 293 kts | 353° |
| 2026-05-05 21:51 | 42.16007 | -87.93481 | 10387 ft | 302 kts | 353° |
| 2026-05-05 21:51 | 42.18179 | -87.93477 | 10934 ft | 321 kts | 353° |
| 2026-05-05 21:51 | 42.20450 | -87.93465 | 11710 ft | 329 kts | 353° |
| 2026-05-05 21:52 | 42.25086 | -87.93431 | 13671 ft | 338 kts | 352° |
| 2026-05-05 21:52 | 42.27449 | -87.93416 | 14643 ft | 341 kts | 352° |
| 2026-05-05 21:52 | 42.29836 | -87.93398 | 15687 ft | 343 kts | 351° |
| 2026-05-05 21:53 | 42.32228 | -87.93402 | 16664 ft | 344 kts | 349° |
| 2026-05-05 21:53 | 42.34607 | -87.93657 | 17617 ft | 343 kts | 344° |
| 2026-05-05 21:53 | 42.36987 | -87.94016 | 18523 ft | 346 kts | 344° |
| 2026-05-05 21:53 | 42.39385 | -87.94362 | 19264 ft | 355 kts | 344° |
| 2026-05-05 21:54 | 42.41880 | -87.94696 | 19961 ft | 364 kts | 344° |
| 2026-05-05 21:54 | 42.44430 | -87.95019 | 20679 ft | 371 kts | 344° |
| 2026-05-05 21:54 | 42.47032 | -87.95344 | 21368 ft | 378 kts | 344° |
| 2026-05-05 21:54 | 42.49685 | -87.95672 | 21865 ft | 389 kts | 344° |
| 2026-05-05 21:55 | 42.52469 | -87.96025 | 21886 ft | 410 kts | 344° |
| 2026-05-05 21:55 | 42.55350 | -87.96374 | 21881 ft | 419 kts | 345° |
| 2026-05-05 21:55 | 42.58279 | -87.96716 | 21884 ft | 423 kts | 345° |
| 2026-05-05 21:55 | 42.61181 | -87.97059 | 21854 ft | 423 kts | 345° |
| 2026-05-05 21:56 | 42.64103 | -87.97383 | 21882 ft | 423 kts | 346° |
| 2026-05-05 21:56 | 42.67060 | -87.97589 | 21879 ft | 425 kts | 347° |
| 2026-05-05 21:56 | 42.70018 | -87.97763 | 21868 ft | 425 kts | 347° |
| 2026-05-05 21:56 | 42.72867 | -87.98402 | 21876 ft | 404 kts | 330° |
| 2026-05-05 21:57 | 42.75332 | -88.00045 | 21917 ft | 391 kts | 320° |
| 2026-05-05 21:57 | 42.77691 | -88.01879 | 21859 ft | 390 kts | 320° |
| 2026-05-05 21:57 | 42.80037 | -88.03723 | 21875 ft | 390 kts | 320° |
| 2026-05-05 21:57 | 42.82391 | -88.05568 | 21870 ft | 390 kts | 320° |
| 2026-05-05 21:58 | 42.84745 | -88.07410 | 21838 ft | 390 kts | 320° |
| 2026-05-05 21:58 | 42.87074 | -88.09232 | 21473 ft | 389 kts | 320° |
| 2026-05-05 21:58 | 42.89412 | -88.11061 | 21133 ft | 384 kts | 320° |
| 2026-05-05 21:58 | 42.91719 | -88.12868 | 20840 ft | 382 kts | 320° |
| 2026-05-05 21:59 | 42.94021 | -88.14674 | 20570 ft | 379 kts | 320° |
| 2026-05-05 21:59 | 42.96292 | -88.16451 | 20314 ft | 368 kts | 320° |
| 2026-05-05 21:59 | 42.98467 | -88.18138 | 20044 ft | 349 kts | 320° |
| 2026-05-05 21:59 | 43.00539 | -88.19755 | 19829 ft | 340 kts | 320° |
| 2026-05-05 22:00 | 43.02583 | -88.21367 | 19602 ft | 338 kts | 320° |
| 2026-05-05 22:00 | 43.04620 | -88.22969 | 19357 ft | 337 kts | 320° |
| 2026-05-05 22:00 | 43.06652 | -88.24566 | 19118 ft | 337 kts | 320° |
| 2026-05-05 22:00 | 43.08693 | -88.26170 | 18881 ft | 339 kts | 320° |
| 2026-05-05 22:01 | 43.10796 | -88.27639 | 18647 ft | 347 kts | 330° |
| 2026-05-05 22:01 | 43.13250 | -88.28165 | 18419 ft | 364 kts | 347° |
| 2026-05-05 22:01 | 43.15800 | -88.28187 | 18185 ft | 367 kts | 351° |
| 2026-05-05 22:01 | 43.18330 | -88.28125 | 18067 ft | 356 kts | 351° |
| 2026-05-05 22:02 | 43.20748 | -88.28068 | 17860 ft | 340 kts | 350° |
| 2026-05-05 22:02 | 43.23040 | -88.28028 | 17621 ft | 328 kts | 349° |
| 2026-05-05 22:02 | 43.25290 | -88.27998 | 17289 ft | 318 kts | 349° |
| 2026-05-05 22:02 | 43.27483 | -88.27973 | 16917 ft | 312 kts | 348° |
| 2026-05-05 22:03 | 43.29643 | -88.27951 | 16511 ft | 308 kts | 348° |
| 2026-05-05 22:03 | 43.31774 | -88.27930 | 16073 ft | 305 kts | 349° |
| 2026-05-05 22:03 | 43.33898 | -88.27909 | 15602 ft | 305 kts | 349° |
| 2026-05-05 22:03 | 43.36020 | -88.27888 | 15110 ft | 305 kts | 349° |
| 2026-05-05 22:04 | 43.38146 | -88.27867 | 14582 ft | 307 kts | 349° |
| 2026-05-05 22:04 | 43.40291 | -88.27843 | 14048 ft | 309 kts | 349° |
| 2026-05-05 22:04 | 43.42445 | -88.27820 | 13499 ft | 311 kts | 350° |
| 2026-05-05 22:04 | 43.44594 | -88.27800 | 12855 ft | 313 kts | 351° |
| 2026-05-05 22:05 | 43.46787 | -88.27778 | 12168 ft | 316 kts | 352° |
| 2026-05-05 22:05 | 43.48992 | -88.27756 | 11499 ft | 318 kts | 353° |
| 2026-05-05 22:05 | 43.51148 | -88.27725 | 10989 ft | 302 kts | 353° |
| 2026-05-05 22:05 | 43.53211 | -88.27701 | 10490 ft | 290 kts | 354° |
| 2026-05-05 22:06 | 43.55212 | -88.27681 | 9992 ft | 284 kts | 354° |
| 2026-05-05 22:06 | 43.57181 | -88.27667 | 9475 ft | 281 kts | 354° |
| 2026-05-05 22:06 | 43.59134 | -88.27654 | 8944 ft | 282 kts | 355° |
| 2026-05-05 22:06 | 43.61068 | -88.27642 | 8563 ft | 281 kts | 355° |
| 2026-05-05 22:07 | 43.63006 | -88.27628 | 8275 ft | 276 kts | 355° |
| 2026-05-05 22:07 | 43.64914 | -88.27615 | 7988 ft | 273 kts | 355° |
| 2026-05-05 22:07 | 43.66808 | -88.27602 | 7705 ft | 272 kts | 355° |
| 2026-05-05 22:07 | 43.68699 | -88.27588 | 7420 ft | 271 kts | 355° |
| 2026-05-05 22:08 | 43.70579 | -88.27579 | 7143 ft | 270 kts | 356° |
| 2026-05-05 22:08 | 43.72451 | -88.27567 | 6858 ft | 269 kts | 355° |
| 2026-05-05 22:08 | 43.74314 | -88.27559 | 6578 ft | 267 kts | 356° |
| 2026-05-05 22:08 | 43.76166 | -88.27549 | 6304 ft | 265 kts | 356° |
| 2026-05-05 22:09 | 43.78007 | -88.27539 | 6021 ft | 264 kts | 356° |
| 2026-05-05 22:09 | 43.79842 | -88.27530 | 5724 ft | 263 kts | 356° |
| 2026-05-05 22:09 | 43.81671 | -88.27519 | 5438 ft | 263 kts | 355° |
| 2026-05-05 22:09 | 43.83500 | -88.27511 | 5159 ft | 262 kts | 356° |
| 2026-05-05 22:10 | 43.85320 | -88.27505 | 4872 ft | 260 kts | 355° |
| 2026-05-05 22:10 | 43.87119 | -88.27495 | 4588 ft | 257 kts | 355° |
| 2026-05-05 22:10 | 43.88910 | -88.27481 | 4306 ft | 257 kts | 355° |
| 2026-05-05 22:10 | 43.90695 | -88.27466 | 4013 ft | 255 kts | 355° |
| 2026-05-05 22:11 | 43.92448 | -88.27462 | 3985 ft | 249 kts | 355° |
| 2026-05-05 22:11 | 43.94194 | -88.27462 | 4015 ft | 253 kts | 355° |
| 2026-05-05 22:11 | 43.95962 | -88.27462 | 3993 ft | 253 kts | 355° |
| 2026-05-05 22:11 | 43.97730 | -88.27469 | 3985 ft | 254 kts | 355° |
| 2026-05-05 22:12 | 43.99481 | -88.27469 | 3995 ft | 256 kts | 355° |
| 2026-05-05 22:12 | 44.01262 | -88.27455 | 3990 ft | 255 kts | 356° |
| 2026-05-05 22:12 | 44.03043 | -88.27444 | 3977 ft | 257 kts | 356° |
| 2026-05-05 22:12 | 44.04831 | -88.27435 | 3993 ft | 257 kts | 355° |
| 2026-05-05 22:13 | 44.06614 | -88.27430 | 4001 ft | 256 kts | 356° |
| 2026-05-05 22:13 | 44.08402 | -88.27422 | 3993 ft | 257 kts | 355° |
| 2026-05-05 22:13 | 44.09586 | -88.27413 | 3986 ft | 257 kts | 355° |
| 2026-05-05 22:13 | 44.10989 | -88.27408 | 3984 ft | 256 kts | 355° |
| 2026-05-05 22:14 | 44.12771 | -88.27400 | 3997 ft | 256 kts | 355° |
| 2026-05-05 22:14 | 44.14550 | -88.27399 | 4010 ft | 256 kts | 355° |
| 2026-05-05 22:14 | 44.16211 | -88.27815 | 3946 ft | 235 kts | 327° |
| 2026-05-05 22:14 | 44.17296 | -88.29267 | 3983 ft | 208 kts | 308° |
| 2026-05-05 22:15 | 44.18243 | -88.30800 | 4025 ft | 208 kts | 304° |
| 2026-05-05 22:15 | 44.18973 | -88.32553 | 3944 ft | 213 kts | 295° |
| 2026-05-05 22:15 | 44.19620 | -88.34444 | 3694 ft | 219 kts | 295° |
| 2026-05-05 22:15 | 44.20291 | -88.36376 | 3389 ft | 222 kts | 295° |
| 2026-05-05 22:16 | 44.20937 | -88.38282 | 3007 ft | 210 kts | 294° |
| 2026-05-05 22:16 | 44.21550 | -88.40009 | 2926 ft | 184 kts | 297° |
| 2026-05-05 22:16 | 44.22108 | -88.41450 | 2854 ft | 157 kts | 294° |
| 2026-05-05 22:16 | 44.22555 | -88.42791 | 2537 ft | 147 kts | 294° |
| 2026-05-05 22:17 | 44.22974 | -88.43982 | 2300 ft | 129 kts | 294° |
| 2026-05-05 22:17 | 44.23344 | -88.45069 | 2029 ft | 122 kts | 293° |
| 2026-05-05 22:17 | 44.23684 | -88.46095 | 1856 ft | 113 kts | 295° |
| 2026-05-05 22:17 | 44.24027 | -88.47040 | 1608 ft | 107 kts | 296° |
| 2026-05-05 22:18 | 44.24346 | -88.47947 | 1385 ft | 105 kts | 295° |
| 2026-05-05 22:18 | 44.24685 | -88.48906 | 1271 ft | 114 kts | 296° |
| 2026-05-05 22:18 | 44.25043 | -88.49929 | 1080 ft | 116 kts | 296° |
| 2026-05-05 22:18 | 44.25384 | -88.50892 | 920 ft | 102 kts | 297° |
| 2026-05-05 22:19 | 44.25649 | -88.51638 | 897 ft | 63 kts | 297° |
| 2026-05-05 22:19 | 44.25782 | -88.52020 | 898 ft | 34 kts | 297° |
| 2026-05-05 22:19 | 44.25880 | -88.52296 | 900 ft | 29 kts | 295° |
| 2026-05-05 22:19 | 44.25938 | -88.52458 | 900 ft | 13 kts | 309° |
| 2026-05-05 22:20 | 44.25991 | -88.52467 | 900 ft | 8 kts | 26° |
| 2026-05-05 22:20 | 44.26033 | -88.52413 | 901 ft | 8 kts | 78° |
| 2026-05-05 22:20 | 44.26019 | -88.52345 | 901 ft | 9 kts | 116° |
| 2026-05-05 22:20 | 44.25984 | -88.52246 | 901 ft | 13 kts | 116° |
| 2026-05-05 22:21 | 44.25934 | -88.52106 | 898 ft | 19 kts | 116° |
| 2026-05-05 22:21 | 44.25882 | -88.51960 | 899 ft | 17 kts | 116° |
| 2026-05-05 22:21 | 44.25836 | -88.51818 | 896 ft | 14 kts | 99° |
| 2026-05-05 22:21 | 44.25851 | -88.51694 | 893 ft | 9 kts | 72° |
| 2026-05-05 22:22 | 44.25861 | -88.51648 | 889 ft | 1 kts | 73° |
| 2026-05-05 22:22 | 44.25869 | -88.51613 | 887 ft | 7 kts | 73° |
| 2026-05-05 22:22 | 44.25887 | -88.51522 | 886 ft | 12 kts | 76° |
| 2026-05-05 22:22 | 44.25906 | -88.51413 | 886 ft | 13 kts | 80° |
| 2026-05-05 22:23 | 44.25910 | -88.51317 | 886 ft | 10 kts | 90° |
| 2026-05-05 22:23 | 44.25940 | -88.51261 | 886 ft | 8 kts | 6° |
| 2026-05-05 22:23 | 44.25964 | -88.51260 | 886 ft | 0 kts | 0° |
| 2026-05-05 22:23 | 44.25968 | -88.51260 | 886 ft | 0 kts | 0° |